Barter Island Lrrs Airport
PABA : now visible

Airfield :











YOU CAN JOIN US ON...

 
LOGIN :

Register | Disclaimer

   EN    FR    IT 

 









Legend :    VFR   Marginal VFR   IFR   Intensive IFR   Very Intensive IFR
Visi :
Ceiling :
>= 8 km
>= 3000ft
5 to 8 km
1000 to 3000 ft
1500m to 5 km
500 to 1000 ft
800 to 1500m
200 to 500 ft
< 800m
< 200 ft
Symbols :   Thunderstorms  Fog  Heavy snow  Heavy precipitations  Wind > 20 kt






- Airport Elevation : 2 ft
- IATA code : BTI


PABA - Barter Island Lrrs

CURRENT METAR :
  • 281847Z AUTO 27021KT 1/2SM HZ VV007 M26/M28 A3034 RMK AO2 PK WND 26026/1835 FZRANO TSNO

EXPIRED METARs :
  • 281841Z AUTO 27022KT 1/2SM HZ FEW006 M26/M28 A3034 RMK AO2 PK WND 26026/1835 FZRANO TSNO
  • 281811Z AUTO 27024KT 1/2SM HZ SCT042 BKN060 M26/M29 A3032 RMK AO2 PK WND 27026/1810 FZRANO TSNO
  • 281752Z AUTO 26023KT 3/4SM HZ SCT038 BKN047 OVC060 M26/M29 A3032 RMK AO2 SNE21 SLP276 P0000 60000 T12611289 11261 21328 58001 FZRANO TSNO
  • 281726Z AUTO 26021KT 3/4SM HZ BKN039 BKN055 M27/M29 A3032 RMK AO2 SNE21 P0000 FZRANO TSNO
  • 281709Z AUTO 26020KT 1/2SM SN FEW008 SCT020 BKN055 M27/M30 A3032 RMK AO2 P0000 FZRANO TSNO
  • 281646Z AUTO 26019KT 1/2SM SN FEW004 BKN020 OVC032 M27/M30 A3032 RMK AO2 P0000 FZRANO TSNO
  • 281638Z AUTO 26019KT 1/2SM SN FEW004 BKN012 OVC026 M28/M31 A3032 RMK AO2 P0000 FZRANO TSNO
  • 281626Z AUTO 26020KT 1/2SM SN FEW004 BKN019 OVC032 M28/M31 A3032 RMK AO2 P0000 FZRANO TSNO
  • 281612Z AUTO 26020KT 1/2SM SN FEW004 BKN012 OVC045 M28/M31 A3032 RMK AO2 P0000 FZRANO TSNO
  • 281604Z AUTO 26017KT 3/4SM -SN FEW009 SCT031 OVC045 M28/M31 A3032 RMK AO2 P0000 FZRANO TSNO

Expired Forecast.



MET'MAP, your aeronautical weather chart ! - Copyright ORBIFLY December 2007 - Disclaimer

ORBIFLY MET'MAP TEAM :

Programming & Development : Alexandra Zaïnal
Concept & original design : Baudouin d'Aumeries
Assistance for programming : Marc-Olivier Méhu
Technical & hardware support : Manuel Goepfert

Contact : metmap@orbifly.com




SOURCES & CREDITS :

   NOAA       Earth
Advisory